sensor_id;sensor_type;location;lat;lon;timestamp;temperature;humidity
29353;DHT22;16344;50.364;8.944;2023-04-23T00:02:15;14.30;55.10
29353;DHT22;16344;50.364;8.944;2023-04-23T00:04:47;14.30;55.00
29353;DHT22;16344;50.364;8.944;2023-04-23T00:07:14;14.30;54.70
29353;DHT22;16344;50.364;8.944;2023-04-23T00:09:41;14.20;58.40
29353;DHT22;16344;50.364;8.944;2023-04-23T00:12:08;14.20;57.60
29353;DHT22;16344;50.364;8.944;2023-04-23T00:14:34;14.30;58.30
29353;DHT22;16344;50.364;8.944;2023-04-23T00:16:59;14.20;58.30
29353;DHT22;16344;50.364;8.944;2023-04-23T00:19:25;14.20;56.60
29353;DHT22;16344;50.364;8.944;2023-04-23T00:21:50;14.20;61.30
29353;DHT22;16344;50.364;8.944;2023-04-23T00:24:16;14.30;59.10
29353;DHT22;16344;50.364;8.944;2023-04-23T00:26:41;14.30;58.80
29353;DHT22;16344;50.364;8.944;2023-04-23T00:29:07;14.30;57.60
29353;DHT22;16344;50.364;8.944;2023-04-23T00:31:32;14.20;57.40
29353;DHT22;16344;50.364;8.944;2023-04-23T00:33:58;14.20;54.40
29353;DHT22;16344;50.364;8.944;2023-04-23T00:36:24;14.20;56.10
29353;DHT22;16344;50.364;8.944;2023-04-23T00:38:50;14.10;57.20
29353;DHT22;16344;50.364;8.944;2023-04-23T00:41:16;14.10;59.90
29353;DHT22;16344;50.364;8.944;2023-04-23T00:43:42;14.10;58.90
29353;DHT22;16344;50.364;8.944;2023-04-23T00:46:09;14.10;58.50
29353;DHT22;16344;50.364;8.944;2023-04-23T00:48:35;14.00;58.40
29353;DHT22;16344;50.364;8.944;2023-04-23T00:51:04;14.00;57.70
29353;DHT22;16344;50.364;8.944;2023-04-23T00:53:30;14.00;61.30
29353;DHT22;16344;50.364;8.944;2023-04-23T00:55:56;14.00;61.20
29353;DHT22;16344;50.364;8.944;2023-04-23T00:58:22;13.90;62.90
29353;DHT22;16344;50.364;8.944;2023-04-23T01:00:48;13.90;60.50
29353;DHT22;16344;50.364;8.944;2023-04-23T01:03:16;13.90;62.90
29353;DHT22;16344;50.364;8.944;2023-04-23T01:05:43;13.90;65.40
29353;DHT22;16344;50.364;8.944;2023-04-23T01:08:16;13.90;67.00
29353;DHT22;16344;50.364;8.944;2023-04-23T01:10:43;13.80;68.90
29353;DHT22;16344;50.364;8.944;2023-04-23T01:13:08;13.80;68.80
29353;DHT22;16344;50.364;8.944;2023-04-23T01:15:35;13.80;71.60
29353;DHT22;16344;50.364;8.944;2023-04-23T01:18:00;13.70;72.00
29353;DHT22;16344;50.364;8.944;2023-04-23T01:20:26;13.70;72.80
29353;DHT22;16344;50.364;8.944;2023-04-23T01:22:52;13.70;72.20
29353;DHT22;16344;50.364;8.944;2023-04-23T01:25:17;13.70;70.00
29353;DHT22;16344;50.364;8.944;2023-04-23T01:27:43;13.80;71.50
29353;DHT22;16344;50.364;8.944;2023-04-23T01:30:09;13.70;73.80
29353;DHT22;16344;50.364;8.944;2023-04-23T01:32:36;13.70;71.50
29353;DHT22;16344;50.364;8.944;2023-04-23T01:35:02;13.60;70.30
29353;DHT22;16344;50.364;8.944;2023-04-23T01:37:29;13.50;73.40
29353;DHT22;16344;50.364;8.944;2023-04-23T01:39:55;13.50;71.80
29353;DHT22;16344;50.364;8.944;2023-04-23T01:42:21;13.40;76.30
29353;DHT22;16344;50.364;8.944;2023-04-23T01:44:47;13.50;78.80
29353;DHT22;16344;50.364;8.944;2023-04-23T01:47:13;13.50;77.10
29353;DHT22;16344;50.364;8.944;2023-04-23T01:49:39;13.50;76.00
29353;DHT22;16344;50.364;8.944;2023-04-23T01:52:05;13.50;78.50
29353;DHT22;16344;50.364;8.944;2023-04-23T01:54:30;13.40;75.70
29353;DHT22;16344;50.364;8.944;2023-04-23T01:56:56;13.50;74.30
29353;DHT22;16344;50.364;8.944;2023-04-23T01:59:23;13.50;73.50
29353;DHT22;16344;50.364;8.944;2023-04-23T02:01:49;13.50;75.10
29353;DHT22;16344;50.364;8.944;2023-04-23T02:04:15;13.40;77.70
29353;DHT22;16344;50.364;8.944;2023-04-23T02:06:44;13.60;74.90
29353;DHT22;16344;50.364;8.944;2023-04-23T02:09:10;13.50;69.60
29353;DHT22;16344;50.364;8.944;2023-04-23T02:11:36;13.40;70.40
29353;DHT22;16344;50.364;8.944;2023-04-23T02:14:02;13.40;73.60
29353;DHT22;16344;50.364;8.944;2023-04-23T02:16:28;13.40;73.70
29353;DHT22;16344;50.364;8.944;2023-04-23T02:18:54;13.40;72.10
29353;DHT22;16344;50.364;8.944;2023-04-23T02:21:21;13.40;69.90
29353;DHT22;16344;50.364;8.944;2023-04-23T02:23:47;13.30;74.60
29353;DHT22;16344;50.364;8.944;2023-04-23T02:26:13;13.40;77.90
29353;DHT22;16344;50.364;8.944;2023-04-23T02:28:38;13.40;76.10
29353;DHT22;16344;50.364;8.944;2023-04-23T02:31:04;13.40;76.50
29353;DHT22;16344;50.364;8.944;2023-04-23T02:33:29;13.40;76.50
29353;DHT22;16344;50.364;8.944;2023-04-23T02:35:55;13.50;72.80
29353;DHT22;16344;50.364;8.944;2023-04-23T02:38:20;13.50;69.60
29353;DHT22;16344;50.364;8.944;2023-04-23T02:40:46;13.50;69.00
29353;DHT22;16344;50.364;8.944;2023-04-23T02:43:11;13.50;70.40
29353;DHT22;16344;50.364;8.944;2023-04-23T02:45:36;13.40;70.60
29353;DHT22;16344;50.364;8.944;2023-04-23T02:48:02;13.40;71.00
29353;DHT22;16344;50.364;8.944;2023-04-23T02:50:28;13.40;72.90
29353;DHT22;16344;50.364;8.944;2023-04-23T02:52:54;13.30;73.20
29353;DHT22;16344;50.364;8.944;2023-04-23T02:55:20;13.30;74.70
29353;DHT22;16344;50.364;8.944;2023-04-23T02:57:46;13.30;76.10
29353;DHT22;16344;50.364;8.944;2023-04-23T03:00:12;13.30;77.10
29353;DHT22;16344;50.364;8.944;2023-04-23T03:02:39;13.30;76.80
29353;DHT22;16344;50.364;8.944;2023-04-23T03:05:05;13.30;72.30
29353;DHT22;16344;50.364;8.944;2023-04-23T03:07:31;13.30;71.20
29353;DHT22;16344;50.364;8.944;2023-04-23T03:09:57;13.30;69.30
29353;DHT22;16344;50.364;8.944;2023-04-23T03:12:22;13.40;69.40
29353;DHT22;16344;50.364;8.944;2023-04-23T03:14:48;13.40;65.40
29353;DHT22;16344;50.364;8.944;2023-04-23T03:17:13;13.50;60.50
29353;DHT22;16344;50.364;8.944;2023-04-23T03:19:39;13.50;59.30
29353;DHT22;16344;50.364;8.944;2023-04-23T03:22:05;13.50;61.10
29353;DHT22;16344;50.364;8.944;2023-04-23T03:24:32;13.50;58.10
29353;DHT22;16344;50.364;8.944;2023-04-23T03:26:57;13.60;55.70
29353;DHT22;16344;50.364;8.944;2023-04-23T03:29:23;13.50;58.60
29353;DHT22;16344;50.364;8.944;2023-04-23T03:31:48;13.50;57.30
29353;DHT22;16344;50.364;8.944;2023-04-23T03:34:14;13.50;57.10
29353;DHT22;16344;50.364;8.944;2023-04-23T03:36:39;13.50;59.50
29353;DHT22;16344;50.364;8.944;2023-04-23T03:39:05;13.50;62.20
29353;DHT22;16344;50.364;8.944;2023-04-23T03:41:32;13.50;64.50
29353;DHT22;16344;50.364;8.944;2023-04-23T03:43:57;13.40;66.50
29353;DHT22;16344;50.364;8.944;2023-04-23T03:46:23;13.50;66.40
29353;DHT22;16344;50.364;8.944;2023-04-23T03:48:48;13.50;64.40
29353;DHT22;16344;50.364;8.944;2023-04-23T03:51:14;13.60;63.40
29353;DHT22;16344;50.364;8.944;2023-04-23T03:53:40;13.60;62.30
29353;DHT22;16344;50.364;8.944;2023-04-23T03:56:05;13.60;58.30
29353;DHT22;16344;50.364;8.944;2023-04-23T03:58:31;13.50;58.90
29353;DHT22;16344;50.364;8.944;2023-04-23T04:00:56;13.50;62.30
29353;DHT22;16344;50.364;8.944;2023-04-23T04:03:22;13.50;62.20
29353;DHT22;16344;50.364;8.944;2023-04-23T04:05:47;13.50;65.00
29353;DHT22;16344;50.364;8.944;2023-04-23T04:08:13;13.50;63.80
29353;DHT22;16344;50.364;8.944;2023-04-23T04:10:38;13.50;60.10
29353;DHT22;16344;50.364;8.944;2023-04-23T04:13:05;13.50;59.40
29353;DHT22;16344;50.364;8.944;2023-04-23T04:15:31;13.50;59.80
29353;DHT22;16344;50.364;8.944;2023-04-23T04:17:57;13.50;60.40
29353;DHT22;16344;50.364;8.944;2023-04-23T04:20:22;13.50;65.50
29353;DHT22;16344;50.364;8.944;2023-04-23T04:22:48;13.40;67.60
29353;DHT22;16344;50.364;8.944;2023-04-23T04:25:14;13.50;67.10
29353;DHT22;16344;50.364;8.944;2023-04-23T04:27:39;13.50;64.80
29353;DHT22;16344;50.364;8.944;2023-04-23T04:30:06;13.50;64.20
29353;DHT22;16344;50.364;8.944;2023-04-23T04:32:32;13.50;66.50
29353;DHT22;16344;50.364;8.944;2023-04-23T04:34:58;13.50;61.60
29353;DHT22;16344;50.364;8.944;2023-04-23T04:37:24;13.50;58.10
29353;DHT22;16344;50.364;8.944;2023-04-23T04:39:49;13.50;61.00
29353;DHT22;16344;50.364;8.944;2023-04-23T04:42:15;13.40;66.20
29353;DHT22;16344;50.364;8.944;2023-04-23T04:44:42;13.40;69.90
29353;DHT22;16344;50.364;8.944;2023-04-23T04:47:08;13.40;67.60
29353;DHT22;16344;50.364;8.944;2023-04-23T04:49:33;13.40;64.90
29353;DHT22;16344;50.364;8.944;2023-04-23T04:51:59;13.40;64.70
29353;DHT22;16344;50.364;8.944;2023-04-23T04:54:25;13.40;66.70
29353;DHT22;16344;50.364;8.944;2023-04-23T04:56:50;13.30;65.20
29353;DHT22;16344;50.364;8.944;2023-04-23T04:59:16;13.40;64.70
29353;DHT22;16344;50.364;8.944;2023-04-23T05:01:42;13.30;59.40
29353;DHT22;16344;50.364;8.944;2023-04-23T05:04:07;13.30;59.50
29353;DHT22;16344;50.364;8.944;2023-04-23T05:06:33;13.40;56.90
29353;DHT22;16344;50.364;8.944;2023-04-23T05:08:58;13.30;56.70
29353;DHT22;16344;50.364;8.944;2023-04-23T05:11:24;13.30;56.80
29353;DHT22;16344;50.364;8.944;2023-04-23T05:13:50;13.30;56.30
29353;DHT22;16344;50.364;8.944;2023-04-23T05:16:16;13.20;62.00
29353;DHT22;16344;50.364;8.944;2023-04-23T05:18:41;13.30;64.20
29353;DHT22;16344;50.364;8.944;2023-04-23T05:21:07;13.30;66.60
29353;DHT22;16344;50.364;8.944;2023-04-23T05:23:34;13.20;68.00
29353;DHT22;16344;50.364;8.944;2023-04-23T05:26:00;13.30;71.90
29353;DHT22;16344;50.364;8.944;2023-04-23T05:28:28;13.30;69.60
29353;DHT22;16344;50.364;8.944;2023-04-23T05:30:53;13.40;66.80
29353;DHT22;16344;50.364;8.944;2023-04-23T05:33:19;13.40;59.90
29353;DHT22;16344;50.364;8.944;2023-04-23T05:35:45;13.60;58.30
29353;DHT22;16344;50.364;8.944;2023-04-23T05:38:10;13.60;53.90
29353;DHT22;16344;50.364;8.944;2023-04-23T05:40:36;13.60;54.50
29353;DHT22;16344;50.364;8.944;2023-04-23T05:43:01;13.70;54.70
29353;DHT22;16344;50.364;8.944;2023-04-23T05:45:27;13.70;50.90
29353;DHT22;16344;50.364;8.944;2023-04-23T05:47:53;13.80;50.50
29353;DHT22;16344;50.364;8.944;2023-04-23T05:50:19;13.70;53.20
29353;DHT22;16344;50.364;8.944;2023-04-23T05:52:45;13.80;52.60
29353;DHT22;16344;50.364;8.944;2023-04-23T05:55:11;13.90;52.60
29353;DHT22;16344;50.364;8.944;2023-04-23T05:57:37;14.10;44.40
29353;DHT22;16344;50.364;8.944;2023-04-23T06:00:05;14.20;37.10
29353;DHT22;16344;50.364;8.944;2023-04-23T06:02:33;14.10;35.70
29353;DHT22;16344;50.364;8.944;2023-04-23T06:04:59;14.10;43.30
29353;DHT22;16344;50.364;8.944;2023-04-23T06:07:25;14.10;42.70
29353;DHT22;16344;50.364;8.944;2023-04-23T06:09:50;14.00;46.20
29353;DHT22;16344;50.364;8.944;2023-04-23T06:12:17;13.90;48.60
29353;DHT22;16344;50.364;8.944;2023-04-23T06:14:43;13.90;51.90
29353;DHT22;16344;50.364;8.944;2023-04-23T06:17:08;13.80;54.20
29353;DHT22;16344;50.364;8.944;2023-04-23T06:19:34;13.90;52.80
29353;DHT22;16344;50.364;8.944;2023-04-23T06:22:00;13.90;46.50
29353;DHT22;16344;50.364;8.944;2023-04-23T06:24:25;14.10;43.80
29353;DHT22;16344;50.364;8.944;2023-04-23T06:26:51;14.20;39.90
29353;DHT22;16344;50.364;8.944;2023-04-23T06:29:16;14.20;29.60
29353;DHT22;16344;50.364;8.944;2023-04-23T06:31:41;14.30;28.40
29353;DHT22;16344;50.364;8.944;2023-04-23T06:34:07;14.30;27.10
29353;DHT22;16344;50.364;8.944;2023-04-23T06:36:33;14.20;26.80
29353;DHT22;16344;50.364;8.944;2023-04-23T06:38:59;14.20;30.20
29353;DHT22;16344;50.364;8.944;2023-04-23T06:41:24;14.20;32.20
29353;DHT22;16344;50.364;8.944;2023-04-23T06:43:50;14.20;40.20
29353;DHT22;16344;50.364;8.944;2023-04-23T06:46:15;14.10;37.20
29353;DHT22;16344;50.364;8.944;2023-04-23T06:48:41;14.10;36.40
29353;DHT22;16344;50.364;8.944;2023-04-23T06:51:06;14.10;32.80
29353;DHT22;16344;50.364;8.944;2023-04-23T06:53:32;14.10;39.00
29353;DHT22;16344;50.364;8.944;2023-04-23T06:55:58;14.40;31.80
29353;DHT22;16344;50.364;8.944;2023-04-23T06:58:23;14.80;20.60
29353;DHT22;16344;50.364;8.944;2023-04-23T07:00:56;15.30;10.70
29353;DHT22;16344;50.364;8.944;2023-04-23T07:03:22;15.60;1.00
29353;DHT22;16344;50.364;8.944;2023-04-23T07:05:47;15.90;1.00
29353;DHT22;16344;50.364;8.944;2023-04-23T07:08:13;16.20;1.00
29353;DHT22;16344;50.364;8.944;2023-04-23T07:10:39;16.70;1.00
29353;DHT22;16344;50.364;8.944;2023-04-23T07:13:04;17.10;1.00
29353;DHT22;16344;50.364;8.944;2023-04-23T07:15:30;17.00;1.00
29353;DHT22;16344;50.364;8.944;2023-04-23T07:17:55;16.60;1.00
29353;DHT22;16344;50.364;8.944;2023-04-23T07:20:21;16.60;1.00
29353;DHT22;16344;50.364;8.944;2023-04-23T07:22:46;16.50;1.00
29353;DHT22;16344;50.364;8.944;2023-04-23T07:25:12;16.50;1.00
29353;DHT22;16344;50.364;8.944;2023-04-23T07:27:37;16.20;1.00
29353;DHT22;16344;50.364;8.944;2023-04-23T07:30:03;16.10;1.00
29353;DHT22;16344;50.364;8.944;2023-04-23T07:32:29;16.20;1.00
29353;DHT22;16344;50.364;8.944;2023-04-23T07:34:55;16.30;1.00
29353;DHT22;16344;50.364;8.944;2023-04-23T07:37:21;16.40;1.00
29353;DHT22;16344;50.364;8.944;2023-04-23T07:39:47;16.50;1.00
29353;DHT22;16344;50.364;8.944;2023-04-23T07:42:13;16.80;1.00
29353;DHT22;16344;50.364;8.944;2023-04-23T07:44:38;17.20;99.90
29353;DHT22;16344;50.364;8.944;2023-04-23T07:47:04;17.20;99.90
29353;DHT22;16344;50.364;8.944;2023-04-23T07:49:29;17.20;99.90
29353;DHT22;16344;50.364;8.944;2023-04-23T07:51:55;17.00;99.90
29353;DHT22;16344;50.364;8.944;2023-04-23T07:54:21;16.80;99.90
29353;DHT22;16344;50.364;8.944;2023-04-23T07:56:46;16.80;1.00
29353;DHT22;16344;50.364;8.944;2023-04-23T07:59:12;17.10;99.90
29353;DHT22;16344;50.364;8.944;2023-04-23T08:01:38;17.10;99.90
29353;DHT22;16344;50.364;8.944;2023-04-23T08:04:03;16.90;99.90
29353;DHT22;16344;50.364;8.944;2023-04-23T08:06:29;16.80;99.90
29353;DHT22;16344;50.364;8.944;2023-04-23T08:08:56;16.70;99.90
29353;DHT22;16344;50.364;8.944;2023-04-23T08:11:22;16.50;1.00
29353;DHT22;16344;50.364;8.944;2023-04-23T08:13:48;16.30;1.00
29353;DHT22;16344;50.364;8.944;2023-04-23T08:16:13;16.10;1.00
29353;DHT22;16344;50.364;8.944;2023-04-23T08:18:39;16.10;1.00
29353;DHT22;16344;50.364;8.944;2023-04-23T08:21:04;16.30;1.00
29353;DHT22;16344;50.364;8.944;2023-04-23T08:23:30;16.30;1.00
29353;DHT22;16344;50.364;8.944;2023-04-23T08:25:55;16.30;1.00
29353;DHT22;16344;50.364;8.944;2023-04-23T08:28:21;16.30;1.00
29353;DHT22;16344;50.364;8.944;2023-04-23T08:30:46;16.20;1.00
29353;DHT22;16344;50.364;8.944;2023-04-23T08:33:13;16.00;1.00
29353;DHT22;16344;50.364;8.944;2023-04-23T08:35:38;16.00;1.00
29353;DHT22;16344;50.364;8.944;2023-04-23T08:38:04;16.00;1.00
29353;DHT22;16344;50.364;8.944;2023-04-23T08:40:31;16.00;1.00
29353;DHT22;16344;50.364;8.944;2023-04-23T08:43:12;16.00;1.00
29353;DHT22;16344;50.364;8.944;2023-04-23T08:45:39;16.20;1.00
29353;DHT22;16344;50.364;8.944;2023-04-23T08:48:06;16.40;1.00
29353;DHT22;16344;50.364;8.944;2023-04-23T08:50:36;16.80;1.00
29353;DHT22;16344;50.364;8.944;2023-04-23T08:53:03;17.30;1.00
29353;DHT22;16344;50.364;8.944;2023-04-23T08:55:33;17.30;99.90
29353;DHT22;16344;50.364;8.944;2023-04-23T08:57:58;17.30;99.90
29353;DHT22;16344;50.364;8.944;2023-04-23T09:00:25;17.50;99.90
29353;DHT22;16344;50.364;8.944;2023-04-23T09:02:51;17.50;99.90
29353;DHT22;16344;50.364;8.944;2023-04-23T09:05:16;17.50;99.90
29353;DHT22;16344;50.364;8.944;2023-04-23T09:07:42;17.10;99.90
29353;DHT22;16344;50.364;8.944;2023-04-23T09:10:10;16.90;99.90
29353;DHT22;16344;50.364;8.944;2023-04-23T09:12:38;16.80;99.90
29353;DHT22;16344;50.364;8.944;2023-04-23T09:15:05;17.10;99.90
29353;DHT22;16344;50.364;8.944;2023-04-23T09:17:35;17.20;99.90
29353;DHT22;16344;50.364;8.944;2023-04-23T09:20:02;17.20;99.90
29353;DHT22;16344;50.364;8.944;2023-04-23T09:25:14;17.70;99.90
29353;DHT22;16344;50.364;8.944;2023-04-23T09:27:40;17.70;99.90
29353;DHT22;16344;50.364;8.944;2023-04-23T09:30:07;17.60;99.90
29353;DHT22;16344;50.364;8.944;2023-04-23T09:32:39;17.80;99.90
29353;DHT22;16344;50.364;8.944;2023-04-23T09:35:08;18.10;86.30
29353;DHT22;16344;50.364;8.944;2023-04-23T09:37:34;18.20;99.90
29353;DHT22;16344;50.364;8.944;2023-04-23T09:40:02;18.40;87.50
29353;DHT22;16344;50.364;8.944;2023-04-23T09:42:29;18.60;61.90
29353;DHT22;16344;50.364;8.944;2023-04-23T09:45:07;18.70;20.70
29353;DHT22;16344;50.364;8.944;2023-04-23T09:47:34;18.80;1.00
29353;DHT22;16344;50.364;8.944;2023-04-23T09:50:02;18.90;1.00
29353;DHT22;16344;50.364;8.944;2023-04-23T09:52:30;19.00;1.00
29353;DHT22;16344;50.364;8.944;2023-04-23T09:54:57;19.20;1.00
29353;DHT22;16344;50.364;8.944;2023-04-23T09:57:24;19.20;1.00
29353;DHT22;16344;50.364;8.944;2023-04-23T09:59:50;19.10;1.00
29353;DHT22;16344;50.364;8.944;2023-04-23T10:02:16;19.00;1.00
29353;DHT22;16344;50.364;8.944;2023-04-23T10:04:42;19.00;1.00
29353;DHT22;16344;50.364;8.944;2023-04-23T10:07:07;19.20;1.00
29353;DHT22;16344;50.364;8.944;2023-04-23T10:09:38;19.50;1.00
29353;DHT22;16344;50.364;8.944;2023-04-23T10:12:04;19.70;1.00
29353;DHT22;16344;50.364;8.944;2023-04-23T10:14:31;19.70;1.00
29353;DHT22;16344;50.364;8.944;2023-04-23T10:17:01;19.90;1.00
29353;DHT22;16344;50.364;8.944;2023-04-23T10:19:28;19.90;1.00
29353;DHT22;16344;50.364;8.944;2023-04-23T10:21:56;19.90;1.00
29353;DHT22;16344;50.364;8.944;2023-04-23T10:24:25;20.00;1.00
29353;DHT22;16344;50.364;8.944;2023-04-23T10:26:59;20.00;1.00
29353;DHT22;16344;50.364;8.944;2023-04-23T10:29:33;20.10;1.00
29353;DHT22;16344;50.364;8.944;2023-04-23T10:32:01;20.00;1.00
29353;DHT22;16344;50.364;8.944;2023-04-23T10:34:28;19.80;1.00
29353;DHT22;16344;50.364;8.944;2023-04-23T10:36:55;19.60;1.00
29353;DHT22;16344;50.364;8.944;2023-04-23T10:39:23;19.70;1.00
29353;DHT22;16344;50.364;8.944;2023-04-23T10:41:49;19.70;1.00
29353;DHT22;16344;50.364;8.944;2023-04-23T10:44:18;20.00;1.00
29353;DHT22;16344;50.364;8.944;2023-04-23T10:46:54;20.10;1.00
29353;DHT22;16344;50.364;8.944;2023-04-23T10:49:28;20.10;1.00
29353;DHT22;16344;50.364;8.944;2023-04-23T10:52:09;20.00;1.00
29353;DHT22;16344;50.364;8.944;2023-04-23T10:54:35;20.00;1.00
29353;DHT22;16344;50.364;8.944;2023-04-23T10:57:03;19.90;1.00
29353;DHT22;16344;50.364;8.944;2023-04-23T10:59:30;19.80;1.00
29353;DHT22;16344;50.364;8.944;2023-04-23T11:01:57;19.60;1.00
29353;DHT22;16344;50.364;8.944;2023-04-23T11:04:28;19.50;1.00
29353;DHT22;16344;50.364;8.944;2023-04-23T11:06:55;19.50;1.00
29353;DHT22;16344;50.364;8.944;2023-04-23T11:09:42;19.60;1.00
29353;DHT22;16344;50.364;8.944;2023-04-23T11:12:30;19.90;1.00
29353;DHT22;16344;50.364;8.944;2023-04-23T11:14:57;20.20;1.00
29353;DHT22;16344;50.364;8.944;2023-04-23T11:20:11;20.30;1.00
29353;DHT22;16344;50.364;8.944;2023-04-23T11:22:40;20.50;1.00
29353;DHT22;16344;50.364;8.944;2023-04-23T11:27:43;20.80;1.00
29353;DHT22;16344;50.364;8.944;2023-04-23T11:30:14;20.70;1.00
29353;DHT22;16344;50.364;8.944;2023-04-23T11:32:41;20.70;1.00
29353;DHT22;16344;50.364;8.944;2023-04-23T11:35:09;20.60;1.00
29353;DHT22;16344;50.364;8.944;2023-04-23T11:37:42;20.60;1.00
29353;DHT22;16344;50.364;8.944;2023-04-23T11:40:09;20.30;1.00
29353;DHT22;16344;50.364;8.944;2023-04-23T11:42:43;20.20;1.00
29353;DHT22;16344;50.364;8.944;2023-04-23T11:45:22;20.10;1.00
29353;DHT22;16344;50.364;8.944;2023-04-23T11:47:50;20.10;1.00
29353;DHT22;16344;50.364;8.944;2023-04-23T11:50:18;20.10;1.00
29353;DHT22;16344;50.364;8.944;2023-04-23T11:52:44;20.10;1.00
29353;DHT22;16344;50.364;8.944;2023-04-23T11:55:10;20.20;1.00
29353;DHT22;16344;50.364;8.944;2023-04-23T11:57:43;20.40;1.00
29353;DHT22;16344;50.364;8.944;2023-04-23T12:00:15;20.40;1.00
29353;DHT22;16344;50.364;8.944;2023-04-23T12:02:59;20.40;1.00
29353;DHT22;16344;50.364;8.944;2023-04-23T12:05:39;20.40;1.00
29353;DHT22;16344;50.364;8.944;2023-04-23T12:08:11;20.30;1.00
29353;DHT22;16344;50.364;8.944;2023-04-23T12:13:19;20.10;1.00
29353;DHT22;16344;50.364;8.944;2023-04-23T12:15:50;20.20;1.00
29353;DHT22;16344;50.364;8.944;2023-04-23T12:18:16;20.20;1.00
29353;DHT22;16344;50.364;8.944;2023-04-23T12:20:42;20.20;1.00
29353;DHT22;16344;50.364;8.944;2023-04-23T12:23:08;20.30;1.00
29353;DHT22;16344;50.364;8.944;2023-04-23T12:25:34;20.40;1.00
29353;DHT22;16344;50.364;8.944;2023-04-23T12:28:01;20.30;1.00
29353;DHT22;16344;50.364;8.944;2023-04-23T12:30:29;20.20;1.00
29353;DHT22;16344;50.364;8.944;2023-04-23T12:33:01;20.10;1.00
29353;DHT22;16344;50.364;8.944;2023-04-23T12:35:48;20.00;1.00
29353;DHT22;16344;50.364;8.944;2023-04-23T12:38:28;19.70;1.00
29353;DHT22;16344;50.364;8.944;2023-04-23T12:40:56;19.60;1.00
29353;DHT22;16344;50.364;8.944;2023-04-23T12:43:23;19.50;1.00
29353;DHT22;16344;50.364;8.944;2023-04-23T12:45:49;19.40;1.00
29353;DHT22;16344;50.364;8.944;2023-04-23T12:48:15;19.30;1.00
29353;DHT22;16344;50.364;8.944;2023-04-23T12:50:41;19.30;1.00
29353;DHT22;16344;50.364;8.944;2023-04-23T12:53:07;19.20;1.00
29353;DHT22;16344;50.364;8.944;2023-04-23T12:55:32;19.20;1.00
29353;DHT22;16344;50.364;8.944;2023-04-23T12:57:58;19.10;1.00
29353;DHT22;16344;50.364;8.944;2023-04-23T13:00:24;19.10;1.00
29353;DHT22;16344;50.364;8.944;2023-04-23T13:02:50;19.00;1.00
29353;DHT22;16344;50.364;8.944;2023-04-23T13:05:15;19.10;1.00
29353;DHT22;16344;50.364;8.944;2023-04-23T13:07:41;19.20;1.00
29353;DHT22;16344;50.364;8.944;2023-04-23T13:10:08;19.20;1.00
29353;DHT22;16344;50.364;8.944;2023-04-23T13:12:34;19.30;1.00
29353;DHT22;16344;50.364;8.944;2023-04-23T13:14:59;19.40;1.00
29353;DHT22;16344;50.364;8.944;2023-04-23T13:17:25;19.50;1.00
29353;DHT22;16344;50.364;8.944;2023-04-23T13:19:52;19.60;1.00
29353;DHT22;16344;50.364;8.944;2023-04-23T13:22:17;19.80;1.00
29353;DHT22;16344;50.364;8.944;2023-04-23T13:24:43;19.90;1.00
29353;DHT22;16344;50.364;8.944;2023-04-23T13:27:09;20.10;1.00
29353;DHT22;16344;50.364;8.944;2023-04-23T13:29:35;20.30;1.00
29353;DHT22;16344;50.364;8.944;2023-04-23T13:32:01;20.40;1.00
29353;DHT22;16344;50.364;8.944;2023-04-23T13:34:26;20.40;1.00
29353;DHT22;16344;50.364;8.944;2023-04-23T13:36:52;20.50;1.00
29353;DHT22;16344;50.364;8.944;2023-04-23T13:39:17;20.60;1.00
29353;DHT22;16344;50.364;8.944;2023-04-23T13:41:44;20.70;1.00
29353;DHT22;16344;50.364;8.944;2023-04-23T13:44:09;20.70;1.00
29353;DHT22;16344;50.364;8.944;2023-04-23T13:46:36;20.60;1.00
29353;DHT22;16344;50.364;8.944;2023-04-23T13:49:04;20.60;1.00
29353;DHT22;16344;50.364;8.944;2023-04-23T13:51:30;20.60;1.00
29353;DHT22;16344;50.364;8.944;2023-04-23T13:53:55;20.70;1.00
29353;DHT22;16344;50.364;8.944;2023-04-23T13:56:21;20.80;1.00
29353;DHT22;16344;50.364;8.944;2023-04-23T13:58:46;20.80;1.00
29353;DHT22;16344;50.364;8.944;2023-04-23T14:01:13;20.80;1.00
29353;DHT22;16344;50.364;8.944;2023-04-23T14:03:40;20.90;1.00
29353;DHT22;16344;50.364;8.944;2023-04-23T14:06:05;20.80;1.00
29353;DHT22;16344;50.364;8.944;2023-04-23T14:08:31;20.70;1.00
29353;DHT22;16344;50.364;8.944;2023-04-23T14:10:57;20.60;1.00
29353;DHT22;16344;50.364;8.944;2023-04-23T14:13:22;20.60;1.00
29353;DHT22;16344;50.364;8.944;2023-04-23T14:15:48;20.50;1.00
29353;DHT22;16344;50.364;8.944;2023-04-23T14:18:13;20.50;1.00
29353;DHT22;16344;50.364;8.944;2023-04-23T14:20:39;20.50;1.00
29353;DHT22;16344;50.364;8.944;2023-04-23T14:25:58;20.70;1.00
29353;DHT22;16344;50.364;8.944;2023-04-23T14:28:39;20.80;1.00
29353;DHT22;16344;50.364;8.944;2023-04-23T14:31:05;20.70;1.00
29353;DHT22;16344;50.364;8.944;2023-04-23T14:33:31;20.70;1.00
29353;DHT22;16344;50.364;8.944;2023-04-23T14:35:56;20.70;1.00
29353;DHT22;16344;50.364;8.944;2023-04-23T14:38:22;20.70;1.00
29353;DHT22;16344;50.364;8.944;2023-04-23T14:40:48;20.90;1.00
29353;DHT22;16344;50.364;8.944;2023-04-23T14:43:13;20.90;1.00
29353;DHT22;16344;50.364;8.944;2023-04-23T14:45:40;20.90;1.00
29353;DHT22;16344;50.364;8.944;2023-04-23T14:48:05;20.90;1.00
29353;DHT22;16344;50.364;8.944;2023-04-23T14:50:31;21.00;1.00
29353;DHT22;16344;50.364;8.944;2023-04-23T14:52:57;21.00;1.00
29353;DHT22;16344;50.364;8.944;2023-04-23T14:55:23;20.90;1.00
29353;DHT22;16344;50.364;8.944;2023-04-23T14:57:49;20.90;1.00
29353;DHT22;16344;50.364;8.944;2023-04-23T15:00:15;21.00;1.00
29353;DHT22;16344;50.364;8.944;2023-04-23T15:02:42;21.10;1.00
29353;DHT22;16344;50.364;8.944;2023-04-23T15:05:10;21.10;1.00
29353;DHT22;16344;50.364;8.944;2023-04-23T15:07:36;21.00;1.00
29353;DHT22;16344;50.364;8.944;2023-04-23T15:10:03;20.90;1.00
29353;DHT22;16344;50.364;8.944;2023-04-23T15:12:47;20.70;1.00
29353;DHT22;16344;50.364;8.944;2023-04-23T15:15:25;20.60;1.00
29353;DHT22;16344;50.364;8.944;2023-04-23T15:17:51;20.40;1.00
29353;DHT22;16344;50.364;8.944;2023-04-23T15:20:17;20.40;1.00
29353;DHT22;16344;50.364;8.944;2023-04-23T15:22:45;20.40;1.00
29353;DHT22;16344;50.364;8.944;2023-04-23T15:25:14;20.50;1.00
29353;DHT22;16344;50.364;8.944;2023-04-23T15:27:41;20.40;1.00
29353;DHT22;16344;50.364;8.944;2023-04-23T15:30:07;20.30;1.00
29353;DHT22;16344;50.364;8.944;2023-04-23T15:32:32;20.30;1.00
29353;DHT22;16344;50.364;8.944;2023-04-23T15:34:58;20.20;1.00
29353;DHT22;16344;50.364;8.944;2023-04-23T15:37:23;20.10;1.00
29353;DHT22;16344;50.364;8.944;2023-04-23T15:39:57;20.00;1.00
29353;DHT22;16344;50.364;8.944;2023-04-23T15:42:24;19.90;1.00
29353;DHT22;16344;50.364;8.944;2023-04-23T15:44:51;19.80;1.00
29353;DHT22;16344;50.364;8.944;2023-04-23T15:47:22;19.70;1.00
29353;DHT22;16344;50.364;8.944;2023-04-23T15:49:48;19.60;1.00